sensor_id;sensor_type;location;lat;lon;timestamp;pressure;altitude;pressure_sealevel;temperature;humidity
72061;BME280;59925;52.136;5.420;2023-04-20T00:00:36;102600.44;;;6.40;45.44
72061;BME280;59925;52.136;5.420;2023-04-20T00:03:02;102601.00;;;6.36;45.38
72061;BME280;59925;52.136;5.420;2023-04-20T00:05:29;102587.25;;;6.32;45.51
72061;BME280;59925;52.136;5.420;2023-04-20T00:07:57;102589.91;;;6.32;45.63
72061;BME280;59925;52.136;5.420;2023-04-20T00:10:24;102584.16;;;6.28;45.74
72061;BME280;59925;52.136;5.420;2023-04-20T00:12:50;102581.69;;;6.20;46.00
72061;BME280;59925;52.136;5.420;2023-04-20T00:15:17;102574.88;;;6.18;46.44
72061;BME280;59925;52.136;5.420;2023-04-20T00:17:43;102570.16;;;6.13;46.54
72061;BME280;59925;52.136;5.420;2023-04-20T00:20:11;102570.53;;;6.10;47.01
72061;BME280;59925;52.136;5.420;2023-04-20T00:22:38;102559.66;;;6.05;47.08
72061;BME280;59925;52.136;5.420;2023-04-20T00:25:05;102559.25;;;6.01;47.66
72061;BME280;59925;52.136;5.420;2023-04-20T00:27:31;102556.75;;;6.00;47.61
72061;BME280;59925;52.136;5.420;2023-04-20T00:29:58;102548.13;;;5.97;48.08
72061;BME280;59925;52.136;5.420;2023-04-20T00:32:24;102546.47;;;5.96;48.24
72061;BME280;59925;52.136;5.420;2023-04-20T00:34:51;102534.19;;;5.95;47.98
72061;BME280;59925;52.136;5.420;2023-04-20T00:37:17;102526.41;;;5.94;48.21
72061;BME280;59925;52.136;5.420;2023-04-20T00:39:44;102522.03;;;5.86;48.98
72061;BME280;59925;52.136;5.420;2023-04-20T00:42:10;102512.03;;;5.88;49.14
72061;BME280;59925;52.136;5.420;2023-04-20T00:44:36;102513.25;;;5.86;49.28
72061;BME280;59925;52.136;5.420;2023-04-20T00:47:03;102511.78;;;5.83;49.61
72061;BME280;59925;52.136;5.420;2023-04-20T00:49:30;102492.94;;;5.78;50.12
72061;BME280;59925;52.136;5.420;2023-04-20T00:51:57;102494.59;;;5.79;50.59
72061;BME280;59925;52.136;5.420;2023-04-20T00:54:27;102488.25;;;5.80;50.77
72061;BME280;59925;52.136;5.420;2023-04-20T00:56:55;102479.44;;;5.79;51.05
72061;BME280;59925;52.136;5.420;2023-04-20T00:59:23;102480.25;;;5.80;51.60
72061;BME280;59925;52.136;5.420;2023-04-20T01:01:49;102473.28;;;5.79;51.60
72061;BME280;59925;52.136;5.420;2023-04-20T01:04:16;102465.09;;;5.80;51.77
72061;BME280;59925;52.136;5.420;2023-04-20T01:06:44;102468.59;;;5.81;52.14
72061;BME280;59925;52.136;5.420;2023-04-20T01:09:10;102466.53;;;5.83;52.12
72061;BME280;59925;52.136;5.420;2023-04-20T01:11:38;102467.00;;;5.87;52.67
72061;BME280;59925;52.136;5.420;2023-04-20T01:14:04;102461.47;;;5.88;52.74
72061;BME280;59925;52.136;5.420;2023-04-20T01:16:31;102460.06;;;5.92;52.70
72061;BME280;59925;52.136;5.420;2023-04-20T01:19:00;102459.03;;;5.93;52.79
72061;BME280;59925;52.136;5.420;2023-04-20T01:21:26;102452.69;;;5.94;52.91
72061;BME280;59925;52.136;5.420;2023-04-20T01:23:53;102442.22;;;5.93;52.95
72061;BME280;59925;52.136;5.420;2023-04-20T01:26:22;102446.53;;;5.94;53.35
72061;BME280;59925;52.136;5.420;2023-04-20T01:28:48;102437.91;;;5.92;53.16
72061;BME280;59925;52.136;5.420;2023-04-20T01:31:14;102434.63;;;5.90;53.59
72061;BME280;59925;52.136;5.420;2023-04-20T01:33:41;102431.38;;;5.88;53.75
72061;BME280;59925;52.136;5.420;2023-04-20T01:36:08;102426.22;;;5.86;54.06
72061;BME280;59925;52.136;5.420;2023-04-20T01:38:35;102425.41;;;5.86;54.33
72061;BME280;59925;52.136;5.420;2023-04-20T01:41:03;102421.28;;;5.83;54.73
72061;BME280;59925;52.136;5.420;2023-04-20T01:43:35;102413.50;;;5.81;55.08
72061;BME280;59925;52.136;5.420;2023-04-20T01:46:02;102418.03;;;5.81;55.05
72061;BME280;59925;52.136;5.420;2023-04-20T01:48:29;102416.81;;;5.83;55.20
72061;BME280;59925;52.136;5.420;2023-04-20T01:50:55;102414.53;;;5.80;55.06
72061;BME280;59925;52.136;5.420;2023-04-20T01:53:22;102416.56;;;5.78;55.26
72061;BME280;59925;52.136;5.420;2023-04-20T01:55:50;102408.78;;;5.77;55.46
72061;BME280;59925;52.136;5.420;2023-04-20T01:58:17;102403.47;;;5.77;56.23
72061;BME280;59925;52.136;5.420;2023-04-20T02:00:43;102407.94;;;5.76;57.03
72061;BME280;59925;52.136;5.420;2023-04-20T02:03:10;102399.97;;;5.76;56.79
72061;BME280;59925;52.136;5.420;2023-04-20T02:05:37;102404.91;;;5.79;57.32
72061;BME280;59925;52.136;5.420;2023-04-20T02:08:03;102397.97;;;5.85;57.44
72061;BME280;59925;52.136;5.420;2023-04-20T02:10:30;102389.81;;;5.93;58.06
72061;BME280;59925;52.136;5.420;2023-04-20T02:12:56;102391.69;;;6.00;58.08
72061;BME280;59925;52.136;5.420;2023-04-20T02:15:23;102382.72;;;6.07;58.44
72061;BME280;59925;52.136;5.420;2023-04-20T02:17:49;102386.22;;;6.15;58.26
72061;BME280;59925;52.136;5.420;2023-04-20T02:20:18;102377.81;;;6.18;58.72
72061;BME280;59925;52.136;5.420;2023-04-20T02:22:45;102371.06;;;6.22;58.87
72061;BME280;59925;52.136;5.420;2023-04-20T02:25:12;102369.66;;;6.26;58.62
72061;BME280;59925;52.136;5.420;2023-04-20T02:27:39;102360.03;;;6.32;58.68
72061;BME280;59925;52.136;5.420;2023-04-20T02:30:06;102364.13;;;6.34;58.85
72061;BME280;59925;52.136;5.420;2023-04-20T02:32:33;102356.13;;;6.34;59.32
72061;BME280;59925;52.136;5.420;2023-04-20T02:35:00;102353.25;;;6.36;59.34
72061;BME280;59925;52.136;5.420;2023-04-20T02:37:27;102352.66;;;6.34;59.34
72061;BME280;59925;52.136;5.420;2023-04-20T02:39:53;102339.34;;;6.34;59.46
72061;BME280;59925;52.136;5.420;2023-04-20T02:42:20;102339.34;;;6.34;59.82
72061;BME280;59925;52.136;5.420;2023-04-20T02:44:46;102336.47;;;6.35;60.28
72061;BME280;59925;52.136;5.420;2023-04-20T02:47:13;102331.53;;;6.39;60.65
72061;BME280;59925;52.136;5.420;2023-04-20T02:49:39;102322.94;;;6.43;60.67
72061;BME280;59925;52.136;5.420;2023-04-20T02:52:06;102319.69;;;6.48;60.62
72061;BME280;59925;52.136;5.420;2023-04-20T02:54:32;102320.09;;;6.52;60.77
72061;BME280;59925;52.136;5.420;2023-04-20T02:56:59;102320.47;;;6.55;60.80
72061;BME280;59925;52.136;5.420;2023-04-20T02:59:26;102311.88;;;6.60;60.64
72061;BME280;59925;52.136;5.420;2023-04-20T03:01:53;102316.38;;;6.66;60.93
72061;BME280;59925;52.136;5.420;2023-04-20T03:04:19;102321.09;;;6.71;60.81
72061;BME280;59925;52.136;5.420;2023-04-20T03:06:49;102318.59;;;6.76;60.62
72061;BME280;59925;52.136;5.420;2023-04-20T03:09:16;102307.34;;;6.81;61.05
72061;BME280;59925;52.136;5.420;2023-04-20T03:11:46;102309.56;;;6.84;61.24
72061;BME280;59925;52.136;5.420;2023-04-20T03:14:13;102305.69;;;6.86;60.92
72061;BME280;59925;52.136;5.420;2023-04-20T03:16:40;102304.22;;;6.90;60.62
72061;BME280;59925;52.136;5.420;2023-04-20T03:19:07;102301.16;;;6.94;60.85
72061;BME280;59925;52.136;5.420;2023-04-20T03:21:34;102293.56;;;6.97;61.07
72061;BME280;59925;52.136;5.420;2023-04-20T03:24:00;102285.75;;;7.02;60.60
72061;BME280;59925;52.136;5.420;2023-04-20T03:26:27;102288.81;;;7.06;60.84
72061;BME280;59925;52.136;5.420;2023-04-20T03:28:53;102287.56;;;7.09;60.83
72061;BME280;59925;52.136;5.420;2023-04-20T03:31:20;102286.13;;;7.13;60.93
72061;BME280;59925;52.136;5.420;2023-04-20T03:33:46;102293.72;;;7.16;60.96
72061;BME280;59925;52.136;5.420;2023-04-20T03:36:13;102277.50;;;7.17;60.84
72061;BME280;59925;52.136;5.420;2023-04-20T03:38:39;102288.78;;;7.19;60.85
72061;BME280;59925;52.136;5.420;2023-04-20T03:41:06;102278.50;;;7.23;60.90
72061;BME280;59925;52.136;5.420;2023-04-20T03:43:33;102287.09;;;7.25;61.12
72061;BME280;59925;52.136;5.420;2023-04-20T03:46:00;102270.91;;;7.27;60.83
72061;BME280;59925;52.136;5.420;2023-04-20T03:48:26;102275.22;;;7.28;60.84
72061;BME280;59925;52.136;5.420;2023-04-20T03:50:53;102276.03;;;7.28;60.97
72061;BME280;59925;52.136;5.420;2023-04-20T03:53:20;102270.28;;;7.31;61.06
72061;BME280;59925;52.136;5.420;2023-04-20T03:55:47;102269.81;;;7.34;61.09
72061;BME280;59925;52.136;5.420;2023-04-20T03:58:13;102271.28;;;7.37;61.05
72061;BME280;59925;52.136;5.420;2023-04-20T04:00:40;102272.69;;;7.40;61.02
72061;BME280;59925;52.136;5.420;2023-04-20T04:03:06;102264.47;;;7.41;61.31
72061;BME280;59925;52.136;5.420;2023-04-20T04:05:33;102255.41;;;7.42;60.99
72061;BME280;59925;52.136;5.420;2023-04-20T04:08:00;102246.38;;;7.43;61.08
72061;BME280;59925;52.136;5.420;2023-04-20T04:10:26;102245.34;;;7.44;61.15
72061;BME280;59925;52.136;5.420;2023-04-20T04:12:53;102244.94;;;7.47;60.98
72061;BME280;59925;52.136;5.420;2023-04-20T04:15:19;102244.72;;;7.49;60.85
72061;BME280;59925;52.136;5.420;2023-04-20T04:17:50;102243.91;;;7.48;61.07
72061;BME280;59925;52.136;5.420;2023-04-20T04:20:18;102245.56;;;7.49;60.92
72061;BME280;59925;52.136;5.420;2023-04-20T04:22:45;102224.19;;;7.49;60.79
72061;BME280;59925;52.136;5.420;2023-04-20T04:25:12;102231.19;;;7.50;61.01
72061;BME280;59925;52.136;5.420;2023-04-20T04:27:39;102223.97;;;7.51;60.95
72061;BME280;59925;52.136;5.420;2023-04-20T04:30:06;102216.81;;;7.51;61.07
72061;BME280;59925;52.136;5.420;2023-04-20T04:32:33;102222.94;;;7.52;61.30
72061;BME280;59925;52.136;5.420;2023-04-20T04:35:01;102217.59;;;7.52;61.36
72061;BME280;59925;52.136;5.420;2023-04-20T04:37:27;102209.41;;;7.54;61.25
72061;BME280;59925;52.136;5.420;2023-04-20T04:39:54;102205.69;;;7.55;61.29
72061;BME280;59925;52.136;5.420;2023-04-20T04:42:21;102203.22;;;7.53;61.34
72061;BME280;59925;52.136;5.420;2023-04-20T04:44:47;102204.88;;;7.54;61.58
72061;BME280;59925;52.136;5.420;2023-04-20T04:47:14;102203.00;;;7.55;61.60
72061;BME280;59925;52.136;5.420;2023-04-20T04:49:42;102204.44;;;7.57;61.79
72061;BME280;59925;52.136;5.420;2023-04-20T04:52:10;102202.59;;;7.58;62.00
72061;BME280;59925;52.136;5.420;2023-04-20T04:54:37;102198.09;;;7.58;62.04
72061;BME280;59925;52.136;5.420;2023-04-20T04:57:03;102204.03;;;7.60;62.89
72061;BME280;59925;52.136;5.420;2023-04-20T04:59:30;102203.81;;;7.62;63.22
72061;BME280;59925;52.136;5.420;2023-04-20T05:01:56;102211.81;;;7.62;63.27
72061;BME280;59925;52.136;5.420;2023-04-20T05:04:23;102211.81;;;7.62;63.68
72061;BME280;59925;52.136;5.420;2023-04-20T05:06:50;102218.78;;;7.63;63.92
72061;BME280;59925;52.136;5.420;2023-04-20T05:09:16;102208.31;;;7.61;63.66
72061;BME280;59925;52.136;5.420;2023-04-20T05:11:43;102201.34;;;7.60;63.36
72061;BME280;59925;52.136;5.420;2023-04-20T05:14:09;102198.69;;;7.60;63.09
72061;BME280;59925;52.136;5.420;2023-04-20T05:16:36;102192.50;;;7.60;63.32
72061;BME280;59925;52.136;5.420;2023-04-20T05:19:03;102204.84;;;7.61;63.23
72061;BME280;59925;52.136;5.420;2023-04-20T05:21:30;102201.34;;;7.60;63.44
72061;BME280;59925;52.136;5.420;2023-04-20T05:23:58;102208.53;;;7.60;63.48
72061;BME280;59925;52.136;5.420;2023-04-20T05:26:24;102212.03;;;7.60;63.24
72061;BME280;59925;52.136;5.420;2023-04-20T05:28:51;102202.97;;;7.61;62.90
72061;BME280;59925;52.136;5.420;2023-04-20T05:31:17;102197.81;;;7.66;62.99
72061;BME280;59925;52.136;5.420;2023-04-20T05:33:44;102201.69;;;7.71;62.84
72061;BME280;59925;52.136;5.420;2023-04-20T05:36:11;102202.72;;;7.70;62.88
72061;BME280;59925;52.136;5.420;2023-04-20T05:38:37;102206.00;;;7.72;63.02
72061;BME280;59925;52.136;5.420;2023-04-20T05:41:04;102211.09;;;7.73;63.03
72061;BME280;59925;52.136;5.420;2023-04-20T05:43:30;102209.28;;;7.74;63.16
72061;BME280;59925;52.136;5.420;2023-04-20T05:45:57;102201.66;;;7.77;63.11
72061;BME280;59925;52.136;5.420;2023-04-20T05:48:24;102198.75;;;7.79;63.02
72061;BME280;59925;52.136;5.420;2023-04-20T05:50:55;102194.81;;;7.81;63.36
72061;BME280;59925;52.136;5.420;2023-04-20T05:53:21;102203.22;;;7.85;63.08
72061;BME280;59925;52.136;5.420;2023-04-20T05:55:48;102197.66;;;7.87;62.95
72061;BME280;59925;52.136;5.420;2023-04-20T05:58:15;102196.03;;;7.86;63.02
72061;BME280;59925;52.136;5.420;2023-04-20T06:00:42;102199.31;;;7.88;62.74
72061;BME280;59925;52.136;5.420;2023-04-20T06:03:09;102190.50;;;7.87;62.16
72061;BME280;59925;52.136;5.420;2023-04-20T06:05:36;102195.59;;;7.89;61.87
72061;BME280;59925;52.136;5.420;2023-04-20T06:08:03;102193.91;;;7.94;61.57
72061;BME280;59925;52.136;5.420;2023-04-20T06:10:30;102183.16;;;8.01;61.38
72061;BME280;59925;52.136;5.420;2023-04-20T06:12:59;102186.00;;;8.06;61.43
72061;BME280;59925;52.136;5.420;2023-04-20T06:15:26;102185.13;;;8.12;61.32
72061;BME280;59925;52.136;5.420;2023-04-20T06:17:52;102182.22;;;8.14;61.29
72061;BME280;59925;52.136;5.420;2023-04-20T06:20:19;102176.06;;;8.13;61.07
72061;BME280;59925;52.136;5.420;2023-04-20T06:22:45;102176.50;;;8.10;60.98
72061;BME280;59925;52.136;5.420;2023-04-20T06:25:12;102176.50;;;8.10;60.76
72061;BME280;59925;52.136;5.420;2023-04-20T06:27:41;102182.06;;;8.09;60.88
72061;BME280;59925;52.136;5.420;2023-04-20T06:30:08;102179.03;;;8.05;60.99
72061;BME280;59925;52.136;5.420;2023-04-20T06:32:35;102179.59;;;8.07;61.31
72061;BME280;59925;52.136;5.420;2023-04-20T06:35:02;102176.94;;;8.07;61.23
72061;BME280;59925;52.136;5.420;2023-04-20T06:37:29;102177.41;;;8.04;61.41
72061;BME280;59925;52.136;5.420;2023-04-20T06:39:56;102172.72;;;8.00;61.38
72061;BME280;59925;52.136;5.420;2023-04-20T06:42:22;102172.91;;;7.98;61.96
72061;BME280;59925;52.136;5.420;2023-04-20T06:44:49;102166.78;;;7.97;62.69
72061;BME280;59925;52.136;5.420;2023-04-20T06:47:16;102161.88;;;7.94;63.47
72061;BME280;59925;52.136;5.420;2023-04-20T06:49:43;102168.84;;;7.95;64.40
72061;BME280;59925;52.136;5.420;2023-04-20T06:52:09;102154.88;;;7.93;64.68
72061;BME280;59925;52.136;5.420;2023-04-20T06:54:36;102160.41;;;7.98;65.62
72061;BME280;59925;52.136;5.420;2023-04-20T06:57:02;102163.88;;;7.99;66.21
72061;BME280;59925;52.136;5.420;2023-04-20T06:59:29;102178.63;;;8.02;66.32
72061;BME280;59925;52.136;5.420;2023-04-20T07:01:55;102168.41;;;7.98;66.76
72061;BME280;59925;52.136;5.420;2023-04-20T07:04:22;102175.38;;;8.00;67.03
72061;BME280;59925;52.136;5.420;2023-04-20T07:06:48;102173.53;;;8.00;67.31
72061;BME280;59925;52.136;5.420;2023-04-20T07:09:19;102178.50;;;7.96;67.51
72061;BME280;59925;52.136;5.420;2023-04-20T07:11:46;102178.69;;;7.95;67.38
72061;BME280;59925;52.136;5.420;2023-04-20T07:14:12;102173.34;;;7.95;67.72
72061;BME280;59925;52.136;5.420;2023-04-20T07:16:39;102174.56;;;7.99;68.07
72061;BME280;59925;52.136;5.420;2023-04-20T07:19:06;102184.81;;;8.02;67.95
72061;BME280;59925;52.136;5.420;2023-04-20T07:21:33;102177.66;;;7.96;68.44
72061;BME280;59925;52.136;5.420;2023-04-20T07:24:01;102165.19;;;7.90;68.76
72061;BME280;59925;52.136;5.420;2023-04-20T07:26:28;102170.31;;;7.91;68.55
72061;BME280;59925;52.136;5.420;2023-04-20T07:28:54;102176.56;;;8.04;68.82
72061;BME280;59925;52.136;5.420;2023-04-20T07:31:20;102175.34;;;8.06;68.94
72061;BME280;59925;52.136;5.420;2023-04-20T07:33:47;102178.06;;;8.00;69.14
72061;BME280;59925;52.136;5.420;2023-04-20T07:36:14;102183.59;;;7.98;69.02
72061;BME280;59925;52.136;5.420;2023-04-20T07:38:40;102186.63;;;8.02;69.11
72061;BME280;59925;52.136;5.420;2023-04-20T07:41:08;102190.19;;;7.95;69.10
72061;BME280;59925;52.136;5.420;2023-04-20T07:43:38;102186.56;;;7.90;69.07
72061;BME280;59925;52.136;5.420;2023-04-20T07:46:04;102181.88;;;7.85;69.00
72061;BME280;59925;52.136;5.420;2023-04-20T07:48:35;102184.00;;;7.76;69.18
72061;BME280;59925;52.136;5.420;2023-04-20T07:51:02;102178.03;;;7.74;68.84
72061;BME280;59925;52.136;5.420;2023-04-20T07:53:28;102180.75;;;7.67;69.28
72061;BME280;59925;52.136;5.420;2023-04-20T07:55:55;102180.16;;;7.65;69.68
72061;BME280;59925;52.136;5.420;2023-04-20T07:58:21;102183.44;;;7.67;69.55
72061;BME280;59925;52.136;5.420;2023-04-20T08:00:48;102178.09;;;7.67;69.76
72061;BME280;59925;52.136;5.420;2023-04-20T08:03:14;102175.44;;;7.67;69.65
72061;BME280;59925;52.136;5.420;2023-04-20T08:05:41;102174.00;;;7.65;69.48
72061;BME280;59925;52.136;5.420;2023-04-20T08:08:08;102175.44;;;7.67;69.78
72061;BME280;59925;52.136;5.420;2023-04-20T08:10:34;102170.31;;;7.66;69.46
72061;BME280;59925;52.136;5.420;2023-04-20T08:13:01;102167.97;;;7.76;69.79
72061;BME280;59925;52.136;5.420;2023-04-20T08:15:28;102163.97;;;7.86;69.60
72061;BME280;59925;52.136;5.420;2023-04-20T08:17:55;102163.19;;;7.85;69.20
72061;BME280;59925;52.136;5.420;2023-04-20T08:20:22;102160.88;;;7.89;69.06
72061;BME280;59925;52.136;5.420;2023-04-20T08:22:48;102161.91;;;7.88;69.07
72061;BME280;59925;52.136;5.420;2023-04-20T08:25:16;102155.25;;;7.97;69.24
72061;BME280;59925;52.136;5.420;2023-04-20T08:27:42;102153.53;;;8.28;69.02
72061;BME280;59925;52.136;5.420;2023-04-20T08:30:09;102144.06;;;8.69;68.80
72061;BME280;59925;52.136;5.420;2023-04-20T08:32:36;102149.84;;;9.15;68.14
72061;BME280;59925;52.136;5.420;2023-04-20T08:35:06;102145.44;;;9.63;66.93
72061;BME280;59925;52.136;5.420;2023-04-20T08:37:33;102145.31;;;9.70;65.91
72061;BME280;59925;52.136;5.420;2023-04-20T08:40:00;102144.63;;;9.75;65.42
72061;BME280;59925;52.136;5.420;2023-04-20T08:42:27;102138.44;;;9.62;65.06
72061;BME280;59925;52.136;5.420;2023-04-20T08:44:53;102142.81;;;9.45;65.05
72061;BME280;59925;52.136;5.420;2023-04-20T08:47:20;102148.53;;;9.37;64.68
72061;BME280;59925;52.136;5.420;2023-04-20T08:49:52;102147.56;;;9.31;65.06
72061;BME280;59925;52.136;5.420;2023-04-20T08:52:18;102141.75;;;9.34;65.35
72061;BME280;59925;52.136;5.420;2023-04-20T08:54:45;102143.84;;;9.32;65.13
72061;BME280;59925;52.136;5.420;2023-04-20T08:57:22;102142.78;;;9.33;64.86
72061;BME280;59925;52.136;5.420;2023-04-20T08:59:49;102131.41;;;9.38;65.61
72061;BME280;59925;52.136;5.420;2023-04-20T09:02:15;102129.00;;;9.48;65.56
72061;BME280;59925;52.136;5.420;2023-04-20T09:04:42;102126.22;;;9.66;65.14
72061;BME280;59925;52.136;5.420;2023-04-20T09:07:17;102125.66;;;9.88;65.19
72061;BME280;59925;52.136;5.420;2023-04-20T09:09:57;102130.53;;;10.15;65.21
72061;BME280;59925;52.136;5.420;2023-04-20T09:12:24;102122.38;;;10.22;63.91
72061;BME280;59925;52.136;5.420;2023-04-20T09:14:51;102120.38;;;10.29;62.74
72061;BME280;59925;52.136;5.420;2023-04-20T09:17:31;102119.22;;;10.49;62.95
72061;BME280;59925;52.136;5.420;2023-04-20T09:19:58;102120.50;;;11.04;62.42
72061;BME280;59925;52.136;5.420;2023-04-20T09:22:32;102127.25;;;11.07;62.10
72061;BME280;59925;52.136;5.420;2023-04-20T09:25:00;102130.53;;;11.09;61.17
72061;BME280;59925;52.136;5.420;2023-04-20T09:27:36;102119.94;;;11.02;60.75
72061;BME280;59925;52.136;5.420;2023-04-20T09:30:04;102108.09;;;11.15;60.52
72061;BME280;59925;52.136;5.420;2023-04-20T09:32:32;102094.69;;;11.15;60.32
72061;BME280;59925;52.136;5.420;2023-04-20T09:34:59;102101.44;;;11.34;59.95
72061;BME280;59925;52.136;5.420;2023-04-20T09:37:25;102100.16;;;11.54;59.77
72061;BME280;59925;52.136;5.420;2023-04-20T09:39:54;102090.59;;;11.63;59.30
72061;BME280;59925;52.136;5.420;2023-04-20T09:42:26;102114.22;;;11.44;59.15
72061;BME280;59925;52.136;5.420;2023-04-20T09:44:53;102102.56;;;11.22;58.95
72061;BME280;59925;52.136;5.420;2023-04-20T09:47:21;102096.09;;;11.06;58.85
72061;BME280;59925;52.136;5.420;2023-04-20T09:49:48;102095.78;;;11.02;59.08
72061;BME280;59925;52.136;5.420;2023-04-20T09:52:16;102107.41;;;11.08;59.71
72061;BME280;59925;52.136;5.420;2023-04-20T09:54:44;102103.16;;;11.24;59.27
72061;BME280;59925;52.136;5.420;2023-04-20T09:57:12;102101.59;;;11.28;59.33
72061;BME280;59925;52.136;5.420;2023-04-20T09:59:43;102089.72;;;11.24;59.99
72061;BME280;59925;52.136;5.420;2023-04-20T10:02:10;102101.28;;;11.24;60.86
72061;BME280;59925;52.136;5.420;2023-04-20T10:04:57;102097.94;;;11.17;60.88
72061;BME280;59925;52.136;5.420;2023-04-20T10:07:29;102086.47;;;11.04;61.27
72061;BME280;59925;52.136;5.420;2023-04-20T10:10:11;102084.72;;;10.98;61.84
72061;BME280;59925;52.136;5.420;2023-04-20T10:12:52;102074.78;;;10.99;61.96
72061;BME280;59925;52.136;5.420;2023-04-20T10:15:19;102075.88;;;11.15;61.64
72061;BME280;59925;52.136;5.420;2023-04-20T10:17:47;102079.53;;;11.09;61.67
72061;BME280;59925;52.136;5.420;2023-04-20T10:20:24;102084.00;;;11.03;61.99
72061;BME280;59925;52.136;5.420;2023-04-20T10:22:53;102079.78;;;11.07;62.17
72061;BME280;59925;52.136;5.420;2023-04-20T10:25:23;102074.09;;;11.03;62.40
72061;BME280;59925;52.136;5.420;2023-04-20T10:27:54;102074.47;;;11.12;61.97
72061;BME280;59925;52.136;5.420;2023-04-20T10:30:22;102070.91;;;11.07;61.78
72061;BME280;59925;52.136;5.420;2023-04-20T10:32:49;102060.44;;;11.22;61.68
72061;BME280;59925;52.136;5.420;2023-04-20T10:35:16;102064.56;;;11.47;61.30
72061;BME280;59925;52.136;5.420;2023-04-20T10:37:50;102065.41;;;11.47;60.98
72061;BME280;59925;52.136;5.420;2023-04-20T10:40:24;102057.91;;;11.49;59.49
72061;BME280;59925;52.136;5.420;2023-04-20T10:42:52;102059.63;;;11.22;57.63
72061;BME280;59925;52.136;5.420;2023-04-20T10:45:19;102062.06;;;11.06;57.52
72061;BME280;59925;52.136;5.420;2023-04-20T10:47:46;102052.09;;;10.89;57.40
72061;BME280;59925;52.136;5.420;2023-04-20T10:50:14;102059.56;;;10.87;57.01
72061;BME280;59925;52.136;5.420;2023-04-20T10:52:42;102055.50;;;10.85;56.91
72061;BME280;59925;52.136;5.420;2023-04-20T10:55:19;102061.59;;;10.80;57.60
72061;BME280;59925;52.136;5.420;2023-04-20T10:57:47;102057.34;;;10.67;57.19
72061;BME280;59925;52.136;5.420;2023-04-20T11:00:17;102052.97;;;10.78;57.28
72061;BME280;59925;52.136;5.420;2023-04-20T11:02:53;102037.72;;;10.96;57.11
72061;BME280;59925;52.136;5.420;2023-04-20T11:05:22;102041.88;;;11.21;55.82
72061;BME280;59925;52.136;5.420;2023-04-20T11:07:59;102034.31;;;11.17;55.47
72061;BME280;59925;52.136;5.420;2023-04-20T11:10:40;102032.50;;;12.19;56.47
72061;BME280;59925;52.136;5.420;2023-04-20T11:13:27;102033.13;;;12.76;54.25
72061;BME280;59925;52.136;5.420;2023-04-20T11:15:54;102031.28;;;12.81;53.05
72061;BME280;59925;52.136;5.420;2023-04-20T11:18:21;102030.16;;;12.77;52.95
72061;BME280;59925;52.136;5.420;2023-04-20T11:20:52;102037.16;;;12.78;51.09
72061;BME280;59925;52.136;5.420;2023-04-20T11:23:23;102033.38;;;12.47;50.88
72061;BME280;59925;52.136;5.420;2023-04-20T11:25:56;102028.72;;;12.37;50.89
72061;BME280;59925;52.136;5.420;2023-04-20T11:28:22;102027.78;;;12.26;51.25
72061;BME280;59925;52.136;5.420;2023-04-20T11:30:51;102022.81;;;12.18;50.80
72061;BME280;59925;52.136;5.420;2023-04-20T11:33:30;102011.28;;;12.17;50.34
72061;BME280;59925;52.136;5.420;2023-04-20T11:35:59;102017.44;;;12.18;50.40
72061;BME280;59925;52.136;5.420;2023-04-20T11:38:31;102021.34;;;12.27;49.99
72061;BME280;59925;52.136;5.420;2023-04-20T11:40:58;102011.00;;;12.19;50.15
72061;BME280;59925;52.136;5.420;2023-04-20T11:43:30;102023.25;;;12.32;50.44
72061;BME280;59925;52.136;5.420;2023-04-20T11:45:58;102013.28;;;12.54;50.46
72061;BME280;59925;52.136;5.420;2023-04-20T11:48:28;102010.84;;;12.53;49.92
72061;BME280;59925;52.136;5.420;2023-04-20T11:50:57;102016.00;;;12.32;49.79
72061;BME280;59925;52.136;5.420;2023-04-20T11:53:23;102004.56;;;12.20;50.14
72061;BME280;59925;52.136;5.420;2023-04-20T11:55:50;102008.28;;;12.14;50.61
72061;BME280;59925;52.136;5.420;2023-04-20T11:58:17;102018.00;;;12.20;50.31
72061;BME280;59925;52.136;5.420;2023-04-20T12:00:43;102009.25;;;12.07;50.08
72061;BME280;59925;52.136;5.420;2023-04-20T12:03:10;102008.97;;;12.04;50.59
72061;BME280;59925;52.136;5.420;2023-04-20T12:05:36;102011.81;;;11.97;50.90
72061;BME280;59925;52.136;5.420;2023-04-20T12:08:03;102012.09;;;11.78;51.23
72061;BME280;59925;52.136;5.420;2023-04-20T12:10:33;102010.03;;;11.63;51.27
72061;BME280;59925;52.136;5.420;2023-04-20T12:13:00;102009.63;;;11.55;52.04
72061;BME280;59925;52.136;5.420;2023-04-20T12:15:26;102006.94;;;11.55;52.30
72061;BME280;59925;52.136;5.420;2023-04-20T12:17:53;102010.13;;;11.52;52.09
72061;BME280;59925;52.136;5.420;2023-04-20T12:20:19;102009.50;;;11.44;51.76
72061;BME280;59925;52.136;5.420;2023-04-20T12:22:46;102001.16;;;11.24;51.92
72061;BME280;59925;52.136;5.420;2023-04-20T12:25:12;102006.91;;;11.15;52.41
72061;BME280;59925;52.136;5.420;2023-04-20T12:27:39;102002.69;;;11.02;52.60
72061;BME280;59925;52.136;5.420;2023-04-20T12:30:06;101996.03;;;11.05;52.54
72061;BME280;59925;52.136;5.420;2023-04-20T12:32:34;101991.38;;;11.17;52.52
72061;BME280;59925;52.136;5.420;2023-04-20T12:35:01;101996.25;;;11.38;52.71
72061;BME280;59925;52.136;5.420;2023-04-20T12:37:28;101990.25;;;11.70;52.49
72061;BME280;59925;52.136;5.420;2023-04-20T12:39:54;101993.59;;;11.99;51.71
72061;BME280;59925;52.136;5.420;2023-04-20T12:42:21;101988.91;;;12.11;51.50
72061;BME280;59925;52.136;5.420;2023-04-20T12:44:47;101986.22;;;12.11;51.39
72061;BME280;59925;52.136;5.420;2023-04-20T12:47:14;101986.81;;;12.19;51.92
72061;BME280;59925;52.136;5.420;2023-04-20T12:49:40;101988.50;;;12.25;51.33
72061;BME280;59925;52.136;5.420;2023-04-20T12:52:07;101978.75;;;12.19;50.57
72061;BME280;59925;52.136;5.420;2023-04-20T12:54:34;101977.75;;;12.25;50.60
72061;BME280;59925;52.136;5.420;2023-04-20T12:57:00;101982.09;;;12.31;50.42
72061;BME280;59925;52.136;5.420;2023-04-20T12:59:27;101992.34;;;12.34;50.65